Time;durP1;ratioP1;P1;durP2;ratioP2;P2;SDS_P1;SDS_P2;PMS_P1;PMS_P2;Temp;Humidity;BMP_temperature;BMP_pressure;BME280_temperature;BME280_humidity;BME280_pressure;Samples;Min_cycle;Max_cycle;Signal;HPM_P1;HPM_P2
2023/08/17 00:00:56;;;;;;;3.97;1.10;;;44.10;33.20;;;;;;5045342;28;20031;-60
2023/08/17 00:03:22;;;;;;;6.10;1.40;;;43.90;33.20;;;;;;5044794;28;20661;-60
2023/08/17 00:05:48;;;;;;;10.07;1.23;;;43.90;32.90;;;;;;5044418;28;20248;-60
2023/08/17 00:08:15;;;;;;;7.47;1.48;;;44.00;33.10;;;;;;5044399;28;20091;-59
2023/08/17 00:10:41;;;;;;;3.40;1.20;;;44.00;33.20;;;;;;5046639;28;20478;-58
2023/08/17 00:13:11;;;;;;;7.22;1.48;;;43.90;33.20;;;;;;5044799;28;20087;-58
2023/08/17 00:15:38;;;;;;;6.35;1.20;;;43.80;33.20;;;;;;5049104;28;20017;-63
2023/08/17 00:18:04;;;;;;;4.85;1.50;;;43.80;32.80;;;;;;5044861;28;20017;-59
2023/08/17 00:20:31;;;;;;;4.53;1.05;;;43.90;33.50;;;;;;5050106;28;20013;-59
2023/08/17 00:22:57;;;;;;;8.57;1.48;;;43.90;33.00;;;;;;5045430;28;20096;-55
2023/08/17 00:25:24;;;;;;;12.15;1.67;;;43.90;33.70;;;;;;5046855;28;20046;-61
2023/08/17 00:27:50;;;;;;;10.70;1.75;;;43.90;32.70;;;;;;5045022;28;20489;-56
2023/08/17 00:30:16;;;;;;;6.28;1.50;;;43.80;32.60;;;;;;5048954;28;20025;-61
2023/08/17 00:32:43;;;;;;;7.43;1.45;;;43.80;32.50;;;;;;5045652;28;20017;-62
2023/08/17 00:35:09;;;;;;;5.35;1.17;;;43.80;32.80;;;;;;5044785;28;20470;-58
2023/08/17 00:37:36;;;;;;;7.68;1.50;;;43.70;32.90;;;;;;5044856;28;20024;-57
2023/08/17 00:40:02;;;;;;;3.53;1.33;;;43.70;32.50;;;;;;5044174;28;20068;-55
2023/08/17 00:42:28;;;;;;;12.88;1.70;;;43.60;33.80;;;;;;5044546;28;20067;-59
2023/08/17 00:44:55;;;;;;;8.15;1.30;;;43.60;33.10;;;;;;5044634;28;20017;-58
2023/08/17 00:47:21;;;;;;;11.15;1.65;;;43.60;32.90;;;;;;5044858;28;20025;-55
2023/08/17 00:49:48;;;;;;;9.85;1.42;;;43.60;33.00;;;;;;5045089;28;20460;-59
2023/08/17 00:52:14;;;;;;;6.95;1.42;;;43.50;33.20;;;;;;5049728;28;20045;-56
2023/08/17 00:54:41;;;;;;;11.10;1.50;;;43.20;33.40;;;;;;5049443;28;20021;-60
2023/08/17 00:57:09;;;;;;;7.22;1.40;;;43.00;33.70;;;;;;5048322;28;20025;-60
2023/08/17 00:59:36;;;;;;;2.92;1.20;;;42.90;33.30;;;;;;5046763;28;20009;-60
2023/08/17 01:02:03;;;;;;;6.10;1.42;;;42.80;34.20;;;;;;5047530;28;20021;-62
2023/08/17 01:04:29;;;;;;;5.07;1.52;;;42.70;35.10;;;;;;5048295;28;20029;-58
2023/08/17 01:06:55;;;;;;;6.80;1.60;;;42.60;34.20;;;;;;5047808;28;20028;-62
2023/08/17 01:09:22;;;;;;;9.48;1.92;;;42.40;34.70;;;;;;5048397;28;20049;-59
2023/08/17 01:12:00;;;;;;;4.30;1.10;;;42.30;33.80;;;;;;5048633;28;20419;-59
2023/08/17 01:14:39;;;;;;;4.40;1.05;;;42.30;34.50;;;;;;5047947;28;20013;-59
2023/08/17 01:17:18;;;;;;;13.60;1.50;;;42.20;34.30;;;;;;5048834;28;20572;-59
2023/08/17 01:19:45;;;;;;;6.88;1.60;;;42.20;34.50;;;;;;5048835;28;20083;-61
2023/08/17 01:22:18;;;;;;;4.13;1.45;;;42.10;34.20;;;;;;5048520;28;20438;-61
2023/08/17 01:24:44;;;;;;;7.68;1.65;;;42.20;34.10;;;;;;5049134;28;20144;-62
2023/08/17 01:27:10;;;;;;;3.95;1.15;;;42.20;34.00;;;;;;5048389;28;20021;-61
2023/08/17 01:29:37;;;;;;;5.40;1.35;;;42.10;34.10;;;;;;5048175;28;20029;-62
2023/08/17 01:32:16;;;;;;;6.00;1.40;;;42.10;34.20;;;;;;5039874;28;20088;-61
2023/08/17 01:34:50;;;;;;;2.53;1.30;;;42.00;34.10;;;;;;5045336;28;20354;-58
2023/08/17 01:37:19;;;;;;;3.97;1.40;;;42.00;33.40;;;;;;5046486;28;20017;-57
2023/08/17 01:39:51;;;;;;;5.13;1.20;;;42.10;33.20;;;;;;5061865;28;20025;-59
2023/08/17 01:42:18;;;;;;;4.13;1.55;;;42.00;33.20;;;;;;5045324;28;20017;-61
2023/08/17 01:44:45;;;;;;;3.47;1.20;;;42.00;33.70;;;;;;5047369;28;20489;-57
2023/08/17 01:47:11;;;;;;;13.68;1.90;;;41.90;33.50;;;;;;5047123;28;20116;-63
2023/08/17 01:49:38;;;;;;;18.52;2.08;;;41.80;33.50;;;;;;5047283;28;20021;-60
2023/08/17 01:52:04;;;;;;;21.42;2.10;;;41.70;33.20;;;;;;5045788;28;20036;-61
2023/08/17 01:54:31;;;;;;;9.73;1.67;;;41.70;32.80;;;;;;5047754;28;20045;-57
2023/08/17 01:56:57;;;;;;;9.73;1.98;;;41.60;33.20;;;;;;5047545;28;20025;-58
2023/08/17 01:59:23;;;;;;;21.05;1.67;;;41.50;33.60;;;;;;5047317;28;20981;-60
2023/08/17 02:01:50;;;;;;;41.15;3.58;;;41.40;32.80;;;;;;5044641;28;20013;-59
2023/08/17 02:04:16;;;;;;;6.85;1.27;;;41.40;32.70;;;;;;5047864;28;20120;-62
2023/08/17 02:06:42;;;;;;;22.60;2.15;;;41.30;33.10;;;;;;5047467;28;20027;-63
2023/08/17 02:09:09;;;;;;;4.75;1.23;;;41.20;33.90;;;;;;5046677;28;20389;-63
2023/08/17 02:11:35;;;;;;;4.68;1.45;;;41.10;32.90;;;;;;5049474;28;20083;-62
2023/08/17 02:14:02;;;;;;;2.63;1.30;;;41.10;32.60;;;;;;5046148;28;20013;-60
2023/08/17 02:16:28;;;;;;;8.18;1.40;;;41.10;32.70;;;;;;5045434;28;20041;-59
2023/08/17 02:18:54;;;;;;;5.80;1.48;;;41.10;33.00;;;;;;5045119;28;20412;-58
2023/08/17 02:21:21;;;;;;;5.95;1.35;;;41.00;33.50;;;;;;5048231;28;20025;-59
2023/08/17 02:23:47;;;;;;;6.53;1.70;;;40.90;32.30;;;;;;5045369;28;20012;-63
2023/08/17 02:26:14;;;;;;;10.73;1.70;;;40.90;32.70;;;;;;5060597;28;20040;-60
2023/08/17 02:28:40;;;;;;;9.05;1.67;;;40.80;33.10;;;;;;5049274;28;20056;-61
2023/08/17 02:31:06;;;;;;;9.80;1.23;;;40.80;32.40;;;;;;5044595;28;20013;-59
2023/08/17 02:33:33;;;;;;;4.80;1.30;;;40.80;32.70;;;;;;5046345;28;20070;-64
2023/08/17 02:36:01;;;;;;;6.47;1.70;;;40.70;32.80;;;;;;5046816;28;20100;-61
2023/08/17 02:38:27;;;;;;;7.90;1.63;;;40.60;34.00;;;;;;5046874;28;20017;-63
2023/08/17 02:40:53;;;;;;;4.47;2.30;;;40.60;33.00;;;;;;5050966;28;20087;-62
2023/08/17 02:43:20;;;;;;;6.68;2.50;;;40.60;32.70;;;;;;5044600;28;20013;-57
2023/08/17 02:45:46;;;;;;;5.70;2.42;;;40.50;33.70;;;;;;5046946;28;20021;-60
2023/08/17 02:48:13;;;;;;;9.43;1.98;;;40.50;33.10;;;;;;5046865;28;20063;-60
2023/08/17 02:50:39;;;;;;;8.85;2.30;;;40.40;32.60;;;;;;5045630;28;20425;-58
2023/08/17 02:53:05;;;;;;;4.35;1.80;;;40.40;32.80;;;;;;5046598;28;20028;-62
2023/08/17 02:55:32;;;;;;;21.30;4.03;;;40.40;32.20;;;;;;5045004;28;20017;-59
2023/08/17 02:57:58;;;;;;;10.27;3.78;;;40.20;32.30;;;;;;5047162;28;20469;-59
2023/08/17 03:00:25;;;;;;;11.25;3.70;;;40.10;34.30;;;;;;5055394;28;20033;-61
2023/08/17 03:02:52;;;;;;;13.65;5.40;;;40.00;33.10;;;;;;5045745;28;20079;-60
2023/08/17 03:05:19;;;;;;;15.70;5.20;;;39.90;32.30;;;;;;5046634;28;20105;-59
2023/08/17 03:07:45;;;;;;;18.73;6.43;;;39.90;33.70;;;;;;5045939;28;20033;-59
2023/08/17 03:10:12;;;;;;;15.50;6.65;;;39.80;33.80;;;;;;5049032;28;20017;-60
2023/08/17 03:12:39;;;;;;;14.27;6.32;;;39.80;33.00;;;;;;5046238;28;20036;-64
2023/08/17 03:15:07;;;;;;;14.23;6.78;;;39.70;33.60;;;;;;5046149;28;20079;-60
2023/08/17 03:17:33;;;;;;;13.80;5.78;;;39.70;33.70;;;;;;5046898;28;20025;-62
2023/08/17 03:20:00;;;;;;;8.48;3.67;;;39.60;33.80;;;;;;5047851;28;20017;-57
2023/08/17 03:22:26;;;;;;;11.40;2.60;;;39.60;34.10;;;;;;5045819;28;20063;-59
2023/08/17 03:24:55;;;;;;;21.50;3.25;;;39.50;34.50;;;;;;5046162;28;20092;-59
2023/08/17 03:27:22;;;;;;;23.73;3.38;;;39.40;34.20;;;;;;5047893;28;20036;-59
2023/08/17 03:29:48;;;;;;;31.63;3.80;;;39.30;34.10;;;;;;5046217;28;20020;-59
2023/08/17 03:32:14;;;;;;;19.58;3.90;;;39.30;35.20;;;;;;5047368;28;20021;-60
2023/08/17 03:34:41;;;;;;;19.75;3.53;;;39.20;34.70;;;;;;5046560;28;20037;-58
2023/08/17 03:37:08;;;;;;;29.77;3.80;;;39.20;34.00;;;;;;5045624;28;20052;-60
2023/08/17 03:39:34;;;;;;;21.15;3.80;;;39.20;34.80;;;;;;5046343;28;21359;-61
2023/08/17 03:42:00;;;;;;;23.13;4.50;;;39.20;33.80;;;;;;5046475;28;20039;-60
2023/08/17 03:44:27;;;;;;;17.75;4.00;;;39.10;34.10;;;;;;5046004;28;20108;-58
2023/08/17 03:46:53;;;;;;;34.33;4.93;;;39.10;34.20;;;;;;5045445;28;20025;-60
2023/08/17 03:49:20;;;;;;;24.35;5.40;;;39.10;34.60;;;;;;5044212;28;20025;-61
2023/08/17 03:51:46;;;;;;;33.05;5.72;;;39.00;35.00;;;;;;5047986;28;20023;-63
2023/08/17 03:54:13;;;;;;;22.35;5.20;;;39.10;34.90;;;;;;5046047;28;20013;-62
2023/08/17 03:56:39;;;;;;;23.40;5.65;;;39.00;35.20;;;;;;5050737;28;20017;-61
2023/08/17 03:59:05;;;;;;;17.05;5.00;;;38.90;36.00;;;;;;5045448;28;20029;-63
2023/08/17 04:01:32;;;;;;;38.10;5.88;;;38.80;36.20;;;;;;5045499;28;20009;-60
2023/08/17 04:03:58;;;;;;;30.23;5.95;;;38.80;35.40;;;;;;5044472;28;20422;-61
2023/08/17 04:06:25;;;;;;;32.13;6.75;;;38.70;35.40;;;;;;5045497;28;20024;-62
2023/08/17 04:08:51;;;;;;;39.35;7.50;;;38.70;35.80;;;;;;5045589;28;20055;-60
2023/08/17 04:11:17;;;;;;;27.42;7.25;;;38.70;36.00;;;;;;5046426;28;20070;-62
2023/08/17 04:13:44;;;;;;;30.77;7.18;;;38.60;36.80;;;;;;5045779;28;20018;-57
2023/08/17 04:16:10;;;;;;;43.38;8.15;;;38.60;36.60;;;;;;5044095;28;20017;-62
2023/08/17 04:18:37;;;;;;;38.45;7.85;;;38.50;37.00;;;;;;5048952;28;20055;-61
2023/08/17 04:21:03;;;;;;;32.40;7.28;;;38.50;36.60;;;;;;5045481;28;20021;-60
2023/08/17 04:23:29;;;;;;;32.00;7.43;;;38.50;36.70;;;;;;5049351;28;20021;-62
2023/08/17 04:25:56;;;;;;;30.02;7.72;;;38.40;36.80;;;;;;5048897;28;20036;-62
2023/08/17 04:28:22;;;;;;;28.25;6.80;;;38.40;36.80;;;;;;5049217;28;20059;-62
2023/08/17 04:30:49;;;;;;;39.45;7.85;;;38.40;37.00;;;;;;5049566;28;20017;-62
2023/08/17 04:33:15;;;;;;;40.15;7.53;;;38.30;37.00;;;;;;5049578;28;20040;-62
2023/08/17 04:35:41;;;;;;;28.98;6.70;;;38.30;37.20;;;;;;5049454;28;20027;-62
2023/08/17 04:38:08;;;;;;;43.05;7.65;;;38.20;37.70;;;;;;5057462;28;20009;-62
2023/08/17 04:40:34;;;;;;;27.42;7.43;;;38.20;37.10;;;;;;5050078;28;20747;-62
2023/08/17 04:43:01;;;;;;;39.83;8.32;;;38.10;37.10;;;;;;5049088;28;20070;-61
2023/08/17 04:45:27;;;;;;;36.88;8.65;;;38.10;37.60;;;;;;5050377;28;20040;-65
2023/08/17 04:47:54;;;;;;;46.50;8.13;;;38.10;38.00;;;;;;5059728;28;20055;-61
2023/08/17 04:50:23;;;;;;;42.47;8.68;;;38.00;37.50;;;;;;5050606;28;20051;-64
2023/08/17 04:52:50;;;;;;;37.95;8.80;;;38.00;38.30;;;;;;5049285;28;20055;-63
2023/08/17 04:55:16;;;;;;;40.65;9.65;;;37.90;38.60;;;;;;5051300;28;20046;-65
2023/08/17 04:57:43;;;;;;;41.30;8.98;;;37.80;39.30;;;;;;5049162;28;20401;-63
2023/08/17 05:00:12;;;;;;;35.45;9.98;;;37.80;38.70;;;;;;5049728;28;20028;-63
2023/08/17 05:02:39;;;;;;;35.72;9.30;;;37.70;38.90;;;;;;5049860;28;20093;-63
2023/08/17 05:05:07;;;;;;;34.90;8.82;;;37.70;38.80;;;;;;5051753;28;20051;-59
2023/08/17 05:07:34;;;;;;;46.80;8.18;;;37.70;38.50;;;;;;5051091;28;20064;-63
2023/08/17 05:10:01;;;;;;;33.85;7.78;;;37.60;38.10;;;;;;5047437;28;20119;-62
2023/08/17 05:12:28;;;;;;;33.05;8.02;;;37.60;37.90;;;;;;5053277;28;20127;-63
2023/08/17 05:14:54;;;;;;;35.67;7.78;;;37.70;38.20;;;;;;5047397;28;20053;-58
2023/08/17 05:17:20;;;;;;;35.75;9.25;;;37.60;38.20;;;;;;5048625;28;20502;-58
2023/08/17 05:19:47;;;;;;;35.05;8.25;;;37.50;41.50;;;;;;5048679;28;20058;-67
2023/08/17 05:22:13;;;;;;;35.53;9.05;;;37.50;39.60;;;;;;5049135;28;20516;-62
2023/08/17 05:24:40;;;;;;;38.92;8.30;;;37.40;41.60;;;;;;5049019;28;20058;-50
2023/08/17 05:27:06;;;;;;;33.20;7.78;;;37.60;40.20;;;;;;5047275;28;20042;-56
2023/08/17 05:29:33;;;;;;;31.38;8.43;;;37.80;40.30;;;;;;5047949;28;20062;-54
2023/08/17 05:31:59;;;;;;;52.92;8.52;;;38.00;38.80;;;;;;5046964;28;20461;-51
2023/08/17 05:34:26;;;;;;;37.83;8.88;;;38.00;39.30;;;;;;5047375;28;20058;-54
2023/08/17 05:36:52;;;;;;;36.38;10.07;;;38.00;38.60;;;;;;5047528;28;20377;-55
2023/08/17 05:39:19;;;;;;;38.05;9.02;;;38.20;37.90;;;;;;5045430;28;20048;-54
2023/08/17 05:41:46;;;;;;;30.20;7.18;;;38.20;38.00;;;;;;5046483;28;20058;-53
2023/08/17 05:44:14;;;;;;;34.05;6.35;;;38.20;37.20;;;;;;5048080;28;20067;-53
2023/08/17 05:46:40;;;;;;;29.88;6.13;;;38.30;37.30;;;;;;5049473;28;20489;-57
2023/08/17 05:49:07;;;;;;;31.45;6.03;;;38.30;37.10;;;;;;5049203;28;20107;-54
2023/08/17 05:51:33;;;;;;;35.75;6.38;;;38.40;37.50;;;;;;5049244;28;20013;-55
2023/08/17 05:53:59;;;;;;;22.20;6.15;;;38.50;37.30;;;;;;5053151;28;20381;-54
2023/08/17 05:56:27;;;;;;;28.58;6.65;;;38.60;37.00;;;;;;5049240;28;20559;-57
2023/08/17 05:58:54;;;;;;;41.28;6.32;;;38.60;37.20;;;;;;5046143;28;20416;-55
2023/08/17 06:01:20;;;;;;;79.50;7.85;;;38.70;36.80;;;;;;5045800;28;20047;-52
2023/08/17 06:03:46;;;;;;;29.08;6.28;;;38.60;37.50;;;;;;5047955;28;20028;-52
2023/08/17 06:06:13;;;;;;;25.48;6.15;;;38.50;37.00;;;;;;5048028;28;20131;-55
2023/08/17 06:08:39;;;;;;;35.92;6.43;;;38.60;37.70;;;;;;5046826;28;20045;-54
2023/08/17 06:11:06;;;;;;;44.53;6.22;;;38.50;38.10;;;;;;5046187;28;20023;-55
2023/08/17 06:13:32;;;;;;;27.23;5.40;;;38.50;38.10;;;;;;5043925;28;20048;-56
2023/08/17 06:15:59;;;;;;;30.33;5.13;;;38.40;38.70;;;;;;5046282;28;20468;-51
2023/08/17 06:18:25;;;;;;;27.85;4.82;;;38.30;39.00;;;;;;5048301;28;20400;-49
2023/08/17 06:20:53;;;;;;;29.50;5.75;;;38.20;38.80;;;;;;5048129;28;20053;-51
2023/08/17 06:23:20;;;;;;;24.13;5.32;;;38.10;38.90;;;;;;5046752;28;20078;-51
2023/08/17 06:25:47;;;;;;;21.55;4.70;;;37.90;38.90;;;;;;5046424;28;20049;-52
2023/08/17 06:28:13;;;;;;;25.10;5.15;;;37.80;37.80;;;;;;5049111;28;20068;-53
2023/08/17 06:30:39;;;;;;;26.17;5.80;;;37.80;38.30;;;;;;5045783;28;20058;-49
2023/08/17 06:33:06;;;;;;;32.55;5.20;;;37.70;38.60;;;;;;5046364;28;20404;-56
2023/08/17 06:35:32;;;;;;;26.15;6.43;;;37.70;38.50;;;;;;5045749;28;20081;-53
2023/08/17 06:37:59;;;;;;;31.10;8.18;;;37.60;37.90;;;;;;5046783;28;20080;-53
2023/08/17 06:40:25;;;;;;;32.92;7.97;;;37.60;38.40;;;;;;5047105;28;21059;-54
2023/08/17 06:42:54;;;;;;;25.98;6.57;;;37.60;38.30;;;;;;5048812;28;20046;-56
2023/08/17 06:45:20;;;;;;;33.05;5.97;;;37.60;38.20;;;;;;5047180;28;20091;-54
2023/08/17 06:47:48;;;;;;;26.10;5.25;;;37.50;38.50;;;;;;5045660;28;20492;-55
2023/08/17 06:50:15;;;;;;;10.65;3.55;;;37.40;38.70;;;;;;5046822;28;20077;-55
2023/08/17 06:52:41;;;;;;;13.77;3.85;;;37.40;39.00;;;;;;5046730;28;20399;-53
2023/08/17 06:55:08;;;;;;;14.18;4.07;;;37.40;38.30;;;;;;5046804;28;20054;-55
2023/08/17 06:57:34;;;;;;;19.00;3.53;;;37.40;38.30;;;;;;5047903;28;20111;-55
2023/08/17 07:00:01;;;;;;;14.50;3.60;;;37.30;38.20;;;;;;5045304;28;20474;-56
2023/08/17 07:02:27;;;;;;;11.00;2.88;;;37.30;38.40;;;;;;5047657;28;20512;-53
2023/08/17 07:04:54;;;;;;;5.93;2.72;;;37.20;38.20;;;;;;5047184;28;20071;-53
2023/08/17 07:07:20;;;;;;;5.32;2.03;;;37.20;37.90;;;;;;5046548;28;20098;-52
2023/08/17 07:09:46;;;;;;;6.25;2.30;;;37.20;38.50;;;;;;5046103;28;20522;-53
2023/08/17 07:12:13;;;;;;;8.60;2.40;;;37.20;38.20;;;;;;5047047;28;20172;-53
2023/08/17 07:14:39;;;;;;;15.65;2.83;;;37.10;38.00;;;;;;5046506;28;20053;-56
2023/08/17 07:17:06;;;;;;;9.45;2.30;;;37.10;38.50;;;;;;5046308;28;20548;-52
2023/08/17 07:19:32;;;;;;;7.80;2.10;;;37.10;38.30;;;;;;5045995;28;20067;-52
2023/08/17 07:21:59;;;;;;;6.70;2.10;;;37.00;38.70;;;;;;5050152;28;20526;-52
2023/08/17 07:24:25;;;;;;;5.75;2.10;;;37.00;38.70;;;;;;5046751;28;20079;-53
2023/08/17 07:26:52;;;;;;;5.72;2.00;;;37.00;39.00;;;;;;5046405;28;20048;-57
2023/08/17 07:29:18;;;;;;;6.72;1.88;;;36.90;39.00;;;;;;5046199;28;20164;-54
2023/08/17 07:31:44;;;;;;;7.07;1.95;;;36.90;39.00;;;;;;5046151;28;20056;-55
2023/08/17 07:34:11;;;;;;;11.63;2.42;;;36.90;39.30;;;;;;5045795;28;20455;-56
2023/08/17 07:36:38;;;;;;;6.63;2.13;;;36.90;38.90;;;;;;5045131;28;20075;-58
2023/08/17 07:39:04;;;;;;;5.88;1.95;;;36.90;39.20;;;;;;5045583;28;20408;-50
2023/08/17 07:41:31;;;;;;;5.80;2.20;;;36.80;39.30;;;;;;5044841;28;20057;-53
2023/08/17 07:43:57;;;;;;;6.70;2.05;;;36.80;39.20;;;;;;5046373;28;20493;-53
2023/08/17 07:46:24;;;;;;;10.48;2.10;;;36.80;39.00;;;;;;5059004;28;20418;-53
2023/08/17 07:48:50;;;;;;;4.55;1.50;;;36.80;39.30;;;;;;5050097;28;20068;-58
2023/08/17 07:51:17;;;;;;;9.88;2.00;;;36.70;39.30;;;;;;5045519;28;20047;-52
2023/08/17 07:53:43;;;;;;;11.77;2.42;;;36.80;38.90;;;;;;5045188;28;20156;-55
2023/08/17 07:56:09;;;;;;;10.82;2.22;;;36.80;38.90;;;;;;5046454;28;20080;-54
2023/08/17 07:58:36;;;;;;;7.63;2.25;;;36.80;39.20;;;;;;5043959;28;20517;-52
2023/08/17 08:01:02;;;;;;;10.25;2.47;;;36.80;39.00;;;;;;5045431;28;20059;-54
2023/08/17 08:03:28;;;;;;;5.78;2.10;;;36.80;39.00;;;;;;5044821;28;20051;-52
2023/08/17 08:05:55;;;;;;;7.50;2.38;;;36.80;38.90;;;;;;5046193;28;20435;-58
2023/08/17 08:08:21;;;;;;;6.50;1.98;;;36.80;38.90;;;;;;5045793;28;20073;-52
2023/08/17 08:10:53;;;;;;;5.80;1.98;;;36.80;39.10;;;;;;5047176;28;20078;-56
2023/08/17 08:13:20;;;;;;;5.45;2.10;;;36.80;38.60;;;;;;5047170;28;20066;-57
2023/08/17 08:15:46;;;;;;;9.05;2.10;;;36.90;38.40;;;;;;5045523;28;20594;-55
2023/08/17 08:18:12;;;;;;;8.07;2.22;;;36.90;38.50;;;;;;5045202;28;20521;-54
2023/08/17 08:20:39;;;;;;;7.60;2.20;;;36.90;39.30;;;;;;5045323;28;20042;-55
2023/08/17 08:23:05;;;;;;;10.80;2.10;;;36.90;39.40;;;;;;5045654;28;20050;-55
2023/08/17 08:25:32;;;;;;;10.68;1.70;;;36.80;39.80;;;;;;5047484;28;20738;-52
2023/08/17 08:27:58;;;;;;;5.97;1.98;;;36.80;40.10;;;;;;5046680;28;20128;-55
2023/08/17 08:30:25;;;;;;;6.53;2.10;;;36.80;40.30;;;;;;5044748;28;20052;-54
2023/08/17 08:32:51;;;;;;;5.15;1.70;;;36.70;40.20;;;;;;5045373;28;20061;-55
2023/08/17 08:35:18;;;;;;;7.45;2.15;;;36.60;40.50;;;;;;5045179;28;20111;-56
2023/08/17 08:37:44;;;;;;;7.93;2.08;;;36.60;40.70;;;;;;5046053;28;20303;-56
2023/08/17 08:40:13;;;;;;;8.15;2.00;;;36.50;40.30;;;;;;5046750;28;20293;-52
2023/08/17 08:42:39;;;;;;;7.57;2.20;;;36.50;40.60;;;;;;5045973;28;20486;-55
2023/08/17 08:45:06;;;;;;;8.50;2.05;;;36.40;40.50;;;;;;5046263;28;20057;-56
2023/08/17 08:47:36;;;;;;;8.93;1.90;;;36.40;40.20;;;;;;5045889;28;20087;-54
2023/08/17 08:50:04;;;;;;;4.55;1.90;;;36.30;40.30;;;;;;5050188;28;20067;-54
2023/08/17 08:52:49;;;;;;;4.78;2.00;;;36.30;40.20;;;;;;5045591;28;20046;-55
2023/08/17 08:55:19;;;;;;;4.03;1.70;;;36.20;40.40;;;;;;5044982;28;20062;-54
2023/08/17 08:57:49;;;;;;;12.55;2.30;;;36.20;40.40;;;;;;5045587;28;20060;-53
2023/08/17 09:00:16;;;;;;;5.80;1.95;;;36.10;40.40;;;;;;5045819;28;20098;-53
2023/08/17 09:02:43;;;;;;;9.13;2.00;;;36.20;40.80;;;;;;5044310;28;20057;-53
2023/08/17 09:05:11;;;;;;;8.70;2.03;;;36.10;40.40;;;;;;5046338;28;20460;-51
2023/08/17 09:07:41;;;;;;;9.35;2.60;;;36.10;40.70;;;;;;5045498;28;20165;-53
2023/08/17 09:10:08;;;;;;;4.70;1.75;;;36.00;40.80;;;;;;5046282;28;20406;-54
2023/08/17 09:12:34;;;;;;;8.43;2.20;;;36.00;40.90;;;;;;5048258;28;20418;-48
2023/08/17 09:15:01;;;;;;;6.18;1.88;;;36.00;41.30;;;;;;5048373;28;20070;-53
2023/08/17 09:17:28;;;;;;;7.88;1.98;;;36.00;41.10;;;;;;5049661;28;20059;-49
2023/08/17 09:19:55;;;;;;;11.00;3.05;;;35.90;41.00;;;;;;5051262;28;20139;-57
2023/08/17 09:22:25;;;;;;;21.70;4.13;;;35.90;40.90;;;;;;5048607;28;20064;-56
2023/08/17 09:24:52;;;;;;;13.57;3.50;;;35.90;40.90;;;;;;5048756;28;20055;-55
2023/08/17 09:27:18;;;;;;;19.23;4.90;;;35.70;40.80;;;;;;5048852;28;20062;-57
2023/08/17 09:29:48;;;;;;;24.63;5.70;;;35.70;40.80;;;;;;5049122;28;20078;-52
2023/08/17 09:32:17;;;;;;;19.10;5.47;;;35.70;41.00;;;;;;5049337;28;20061;-49
2023/08/17 09:34:44;;;;;;;26.33;6.30;;;35.70;42.20;;;;;;5049462;28;20057;-55
2023/08/17 09:37:13;;;;;;;28.35;7.63;;;35.60;42.40;;;;;;5047097;28;20373;-55
2023/08/17 09:39:40;;;;;;;27.23;7.75;;;35.60;42.40;;;;;;5048144;28;20067;-57
2023/08/17 09:42:06;;;;;;;24.10;6.70;;;35.50;42.90;;;;;;5051256;28;20146;-56
2023/08/17 09:44:35;;;;;;;21.00;6.97;;;35.50;43.50;;;;;;5048711;28;20051;-54
2023/08/17 09:47:01;;;;;;;32.08;7.35;;;35.30;42.50;;;;;;5048324;28;20051;-54
2023/08/17 09:49:33;;;;;;;58.28;8.68;;;35.30;43.10;;;;;;5047202;28;20072;-54
2023/08/17 09:52:02;;;;;;;23.70;7.22;;;35.30;42.90;;;;;;5048132;28;20534;-49
2023/08/17 09:54:31;;;;;;;23.50;7.85;;;35.20;44.00;;;;;;5056316;28;20069;-54
2023/08/17 09:57:01;;;;;;;26.63;8.88;;;35.10;44.00;;;;;;5048695;28;20530;-51
2023/08/17 09:59:28;;;;;;;32.83;8.60;;;35.00;44.10;;;;;;5050526;28;20060;-51
2023/08/17 10:01:56;;;;;;;23.98;8.13;;;34.90;43.80;;;;;;5048914;28;20063;-53
2023/08/17 10:04:23;;;;;;;30.80;8.98;;;34.90;44.10;;;;;;5048212;28;20235;-54
2023/08/17 10:06:57;;;;;;;33.30;9.05;;;34.90;43.60;;;;;;5047094;28;20065;-49
2023/08/17 10:09:27;;;;;;;33.72;8.85;;;34.90;43.50;;;;;;5047746;28;20087;-54
2023/08/17 10:12:00;;;;;;;32.35;9.38;;;34.90;44.40;;;;;;5048142;28;20542;-53
2023/08/17 10:14:33;;;;;;;37.35;9.45;;;34.90;44.70;;;;;;5049304;28;20059;-53
2023/08/17 10:17:13;;;;;;;25.15;9.15;;;34.90;45.30;;;;;;5047482;28;20074;-50
2023/08/17 10:19:55;;;;;;;34.08;9.45;;;34.70;44.30;;;;;;5047650;28;20056;-51
2023/08/17 10:22:44;;;;;;;28.17;9.00;;;34.70;45.00;;;;;;5046888;28;20066;-55
2023/08/17 10:25:13;;;;;;;31.85;9.45;;;34.70;45.50;;;;;;5046392;28;20066;-48
2023/08/17 10:27:41;;;;;;;34.85;9.65;;;34.70;44.90;;;;;;5047941;28;20139;-53
2023/08/17 10:30:10;;;;;;;31.67;9.52;;;34.70;44.30;;;;;;5047814;28;20156;-54
2023/08/17 10:32:37;;;;;;;31.25;8.02;;;34.70;43.90;;;;;;5047180;28;20063;-52
2023/08/17 10:35:04;;;;;;;25.60;7.78;;;34.60;44.30;;;;;;5049723;28;20853;-55
2023/08/17 10:37:32;;;;;;;26.30;7.95;;;34.60;45.00;;;;;;5047996;28;20516;-55
2023/08/17 10:39:58;;;;;;;25.83;8.38;;;34.60;45.80;;;;;;5047247;28;20459;-54
2023/08/17 10:42:36;;;;;;;39.33;8.80;;;34.50;45.70;;;;;;5047659;28;20066;-55
2023/08/17 10:45:26;;;;;;;32.83;8.60;;;34.50;45.20;;;;;;5052287;28;20068;-53
2023/08/17 10:48:09;;;;;;;27.88;8.57;;;34.30;45.20;;;;;;5041043;28;20074;-55
2023/08/17 10:50:37;;;;;;;31.55;7.85;;;34.30;46.20;;;;;;5046733;28;20091;-53
2023/08/17 10:53:17;;;;;;;31.95;8.32;;;34.30;45.40;;;;;;5045619;28;20081;-52
2023/08/17 10:55:53;;;;;;;31.15;7.85;;;34.30;45.00;;;;;;5046427;28;20057;-53
2023/08/17 10:58:19;;;;;;;28.33;7.90;;;34.20;45.70;;;;;;5046948;28;20577;-55
2023/08/17 11:00:46;;;;;;;29.15;7.72;;;34.30;45.60;;;;;;5046395;28;20391;-56
2023/08/17 11:03:20;;;;;;;22.27;7.07;;;34.20;45.80;;;;;;5047057;28;20122;-51
2023/08/17 11:05:55;;;;;;;21.13;7.03;;;34.20;46.40;;;;;;5045993;28;20059;-51
2023/08/17 11:08:40;;;;;;;19.83;7.70;;;34.20;45.80;;;;;;5048277;28;20181;-55
2023/08/17 11:11:14;;;;;;;27.00;7.57;;;34.20;45.30;;;;;;5046862;28;20062;-48
2023/08/17 11:13:45;;;;;;;22.80;6.85;;;34.10;45.60;;;;;;5046338;28;20054;-51
2023/08/17 11:16:13;;;;;;;26.30;6.47;;;34.10;46.00;;;;;;5046715;28;20125;-55
2023/08/17 11:18:44;;;;;;;25.52;7.07;;;34.20;45.80;;;;;;5046293;28;20072;-55
2023/08/17 11:21:10;;;;;;;30.85;7.10;;;34.20;45.90;;;;;;5046589;28;20081;-53
2023/08/17 11:23:38;;;;;;;27.88;7.60;;;34.20;45.40;;;;;;5046587;28;20065;-54
2023/08/17 11:26:05;;;;;;;21.42;7.38;;;34.20;45.80;;;;;;5048071;28;20564;-55
2023/08/17 11:28:36;;;;;;;23.15;8.65;;;34.10;46.00;;;;;;5046857;28;20432;-49
2023/08/17 11:31:13;;;;;;;20.02;7.90;;;34.10;46.20;;;;;;5046717;28;20053;-54
2023/08/17 11:33:40;;;;;;;23.25;7.40;;;34.10;46.40;;;;;;5045930;28;20532;-52
2023/08/17 11:36:08;;;;;;;25.85;8.75;;;34.00;46.30;;;;;;5046368;28;20404;-54
2023/08/17 11:38:39;;;;;;;17.67;7.85;;;34.10;47.30;;;;;;5044462;28;20400;-55
2023/08/17 11:41:08;;;;;;;29.77;8.27;;;34.00;47.10;;;;;;5045336;28;20532;-54
2023/08/17 11:43:34;;;;;;;19.52;7.82;;;33.90;47.00;;;;;;5045426;28;20072;-53
2023/08/17 11:46:02;;;;;;;38.40;7.82;;;33.90;47.10;;;;;;5045847;28;20404;-54
2023/08/17 11:48:29;;;;;;;23.33;7.78;;;33.90;48.00;;;;;;5046109;28;20489;-53
2023/08/17 11:50:55;;;;;;;26.45;7.70;;;33.80;47.20;;;;;;5047211;28;20057;-56
2023/08/17 11:53:22;;;;;;;25.75;7.43;;;33.80;48.00;;;;;;5046102;28;20060;-54
2023/08/17 11:55:49;;;;;;;20.27;6.22;;;33.80;47.70;;;;;;5045991;28;20065;-55
2023/08/17 11:58:16;;;;;;;19.10;6.20;;;33.80;47.70;;;;;;5046363;28;20743;-56
2023/08/17 12:00:46;;;;;;;24.80;7.18;;;33.80;47.90;;;;;;5047774;28;20057;-51
2023/08/17 12:03:18;;;;;;;20.88;6.43;;;33.70;48.80;;;;;;5046272;28;20049;-55
2023/08/17 12:05:45;;;;;;;26.85;6.50;;;33.60;48.50;;;;;;5045316;28;20071;-56
2023/08/17 12:08:16;;;;;;;16.75;6.05;;;33.60;48.40;;;;;;5045766;28;20148;-55
2023/08/17 12:10:45;;;;;;;23.15;6.85;;;33.50;49.10;;;;;;5045017;28;20194;-57
2023/08/17 12:13:12;;;;;;;19.88;6.57;;;33.50;49.30;;;;;;5044567;28;20122;-51
2023/08/17 12:15:40;;;;;;;22.35;6.97;;;33.50;48.90;;;;;;5046479;28;20087;-53
2023/08/17 12:18:06;;;;;;;20.20;6.93;;;33.50;49.50;;;;;;5047197;28;20050;-52
2023/08/17 12:20:36;;;;;;;20.48;6.28;;;33.50;48.50;;;;;;5045505;28;20658;-53
2023/08/17 12:23:03;;;;;;;22.75;6.38;;;33.50;48.40;;;;;;5046019;28;20059;-51
2023/08/17 12:25:30;;;;;;;29.92;8.10;;;33.50;48.50;;;;;;5047297;28;20085;-50
2023/08/17 12:28:00;;;;;;;27.40;8.45;;;33.50;48.90;;;;;;5046000;28;20114;-53
2023/08/17 12:30:31;;;;;;;24.85;8.77;;;33.50;50.10;;;;;;5045368;28;20618;-52
2023/08/17 12:32:58;;;;;;;23.63;8.13;;;33.40;50.10;;;;;;5045580;28;20105;-52
2023/08/17 12:35:25;;;;;;;22.10;7.68;;;33.40;50.20;;;;;;5045751;28;21592;-57
2023/08/17 12:37:54;;;;;;;16.02;6.45;;;33.40;49.50;;;;;;5045666;28;20054;-56
2023/08/17 12:40:22;;;;;;;19.60;6.55;;;33.40;49.90;;;;;;5046651;28;20088;-52
2023/08/17 12:42:49;;;;;;;20.08;6.45;;;33.30;49.90;;;;;;5044874;28;20074;-57